createdAt,value
2023-04-15T00:03:52.780Z,107680.44
2023-04-15T00:08:56.238Z,107282.38
2023-04-15T00:14:03.098Z,107173.06
2023-04-15T00:19:06.449Z,107198.52
2023-04-15T00:24:09.834Z,107298.92
2023-04-15T00:29:15.313Z,107433.09
2023-04-15T00:34:18.796Z,108363.44
2023-04-15T00:39:24.406Z,108539.40
2023-04-15T00:44:31.346Z,108516.32
2023-04-15T00:49:39.367Z,108198.23
2023-04-15T00:54:42.699Z,107692.42
2023-04-15T00:59:53.964Z,107592.45
2023-04-15T01:04:57.651Z,107349.02
2023-04-15T01:10:02.369Z,106309.99
2023-04-15T01:15:08.127Z,106269.38
2023-04-15T01:20:12.284Z,105814.80
2023-04-15T01:25:21.717Z,105723.52
2023-04-15T01:30:29.988Z,105337.76
2023-04-15T01:35:35.726Z,105070.89
2023-04-15T01:40:39.524Z,104355.79
2023-04-15T01:45:47.010Z,103839.55
2023-04-15T01:50:50.365Z,103769.77
2023-04-15T01:55:53.733Z,103888.81
2023-04-15T02:00:58.457Z,104224.16
2023-04-15T02:06:06.247Z,104041.11
2023-04-15T02:11:09.591Z,104591.11
2023-04-15T02:16:21.414Z,104923.46
2023-04-15T02:21:24.799Z,104551.98
2023-04-15T02:26:28.130Z,104638.62
2023-04-15T02:31:37.015Z,104589.52
2023-04-15T02:36:42.966Z,104321.91
2023-04-15T02:41:47.859Z,104430.88
2023-04-15T02:46:54.872Z,104592.48
2023-04-15T02:52:00.028Z,105352.77
2023-04-15T02:57:04.090Z,105608.51
2023-04-15T03:02:46.279Z,105385.86
2023-04-15T03:08:12.501Z,105092.60
2023-04-15T03:13:15.879Z,105103.70
2023-04-15T03:18:22.164Z,105329.81
2023-04-15T03:23:30.053Z,104884.05
2023-04-15T03:28:34.175Z,103851.14
2023-04-15T03:33:38.917Z,103392.73
2023-04-15T03:38:46.434Z,101585.36
2023-04-15T03:43:52.078Z,101263.02
2023-04-15T03:48:55.430Z,102331.40
2023-04-15T03:54:00.130Z,101689.29
2023-04-15T03:59:03.610Z,100040.76
2023-04-15T04:04:09.228Z,100813.30
2023-04-15T04:09:16.551Z,100989.13
2023-04-15T04:14:19.841Z,100831.80
2023-04-15T04:19:25.507Z,99987.88
2023-04-15T04:24:30.272Z,99010.41
2023-04-15T04:29:36.162Z,99114.77
2023-04-15T04:34:41.925Z,99301.92
2023-04-15T04:39:46.692Z,99691.69
2023-04-15T04:44:50.053Z,99415.05
2023-04-15T04:49:55.585Z,99557.59
2023-04-15T04:55:05.899Z,99606.80
2023-04-15T05:00:14.165Z,99900.61
2023-04-15T05:05:17.487Z,100060.27
2023-04-15T05:10:24.569Z,100381.15
2023-04-15T05:15:28.222Z,100123.52
2023-04-15T05:20:31.606Z,100407.25
2023-04-15T05:25:36.567Z,100178.54
2023-04-15T05:30:40.272Z,100286.32
2023-04-15T05:35:46.913Z,100069.15
2023-04-15T05:40:51.863Z,100398.07
2023-04-15T05:45:57.425Z,99983.82
2023-04-15T05:51:00.840Z,100180.54
2023-04-15T05:56:08.037Z,100603.00
2023-04-15T06:01:11.794Z,100646.29
2023-04-15T06:06:16.254Z,100653.89
2023-04-15T06:11:21.448Z,100281.09
2023-04-15T06:16:24.792Z,100140.08
2023-04-15T06:21:28.216Z,101064.17
2023-04-15T06:26:35.277Z,100894.60
2023-04-15T06:31:38.579Z,100827.00
2023-04-15T06:36:42.366Z,100734.95
2023-04-15T06:41:47.391Z,100459.41
2023-04-15T06:46:55.359Z,100365.38
2023-04-15T06:52:01.659Z,100837.14
2023-04-15T06:57:07.172Z,101082.26
2023-04-15T07:02:13.519Z,100834.16
2023-04-15T07:07:19.308Z,100323.19
2023-04-15T07:12:24.319Z,100516.98
2023-04-15T07:17:27.910Z,100763.55
2023-04-15T07:22:31.180Z,100566.44
2023-04-15T07:27:36.049Z,98916.00
2023-04-15T07:32:39.333Z,99086.16
2023-04-15T07:37:43.416Z,98875.06
2023-04-15T07:42:49.461Z,99251.62
2023-04-15T07:47:52.939Z,100033.63
2023-04-15T07:52:56.369Z,100452.88
2023-04-15T07:58:03.305Z,100112.83
2023-04-15T08:03:06.891Z,99862.49
2023-04-15T08:08:14.889Z,99612.34
2023-04-15T08:13:19.550Z,99518.44
2023-04-15T08:18:22.795Z,100501.34
2023-04-15T08:23:26.343Z,100340.94
2023-04-15T08:28:33.603Z,100344.60
2023-04-15T08:33:37.067Z,100395.04
2023-04-15T08:38:40.583Z,100150.23
2023-04-15T08:43:52.962Z,100515.06
2023-04-15T08:48:57.997Z,100521.23
2023-04-15T08:54:01.916Z,100704.13
2023-04-15T08:59:07.385Z,101294.37
2023-04-15T09:04:12.658Z,100279.61
2023-04-15T09:09:18.373Z,99590.46
2023-04-15T09:14:23.048Z,99713.19
2023-04-15T09:19:29.125Z,100000.49
2023-04-15T09:24:38.615Z,99462.56
2023-04-15T09:29:43.768Z,99237.82
2023-04-15T09:34:48.144Z,99257.55
2023-04-15T09:39:52.250Z,99129.29
2023-04-15T09:45:10.583Z,98938.93
2023-04-15T09:50:14.724Z,99857.27
2023-04-15T09:55:19.235Z,99313.23
2023-04-15T10:00:23.906Z,98328.98
2023-04-15T10:05:29.722Z,98564.83
2023-04-15T10:10:36.349Z,98440.35
2023-04-15T10:15:46.105Z,99799.37
2023-04-15T10:20:50.061Z,100513.38
2023-04-15T10:25:54.413Z,100802.07
2023-04-15T10:31:03.051Z,100691.73
2023-04-15T10:36:08.977Z,100972.02
2023-04-15T10:41:21.236Z,100606.11
2023-04-15T10:46:37.631Z,100652.80
2023-04-15T10:51:44.865Z,102007.05
2023-04-15T10:56:52.892Z,101415.48
2023-04-15T11:02:02.068Z,101709.68
2023-04-15T11:07:09.224Z,102190.64
2023-04-15T11:12:14.963Z,102075.83
2023-04-15T11:17:30.044Z,102054.96
2023-04-15T11:22:34.240Z,102268.61
2023-04-15T11:27:37.923Z,102455.88
2023-04-15T11:32:44.433Z,102208.51
2023-04-15T11:37:48.516Z,101469.62
2023-04-15T11:43:05.453Z,101469.25
2023-04-15T11:48:11.334Z,101019.08
2023-04-15T11:53:15.327Z,100331.92
2023-04-15T11:58:22.017Z,100142.98
2023-04-15T12:03:27.845Z,99681.34
2023-04-15T12:08:46.157Z,100395.23
2023-04-15T12:13:50.207Z,100845.64
2023-04-15T12:18:57.890Z,101285.27
2023-04-15T12:24:04.183Z,101437.77
2023-04-15T12:29:10.970Z,101700.26
2023-04-15T12:34:15.790Z,101513.50
2023-04-15T12:39:19.489Z,101476.49
2023-04-15T12:44:24.538Z,42150.10
2023-04-15T12:49:29.342Z,13.22
2023-04-15T12:54:33.180Z,13.22
2023-04-15T12:59:36.681Z,14.69
2023-04-15T13:04:43.861Z,18.52
2023-04-15T13:09:47.644Z,96.13
2023-04-15T13:14:51.125Z,23457.19
2023-04-15T13:19:58.320Z,81365.85
2023-04-15T13:25:04.146Z,112356.98
2023-04-15T13:30:07.873Z,115066.41
2023-04-15T13:35:14.828Z,115872.79
2023-04-15T13:40:21.104Z,115576.86
2023-04-15T13:45:24.552Z,113402.23
2023-04-15T13:50:29.379Z,54170.46
2023-04-15T13:55:35.035Z,59185.86
2023-04-15T14:00:38.633Z,62332.26
2023-04-15T14:05:43.304Z,66439.52
2023-04-15T14:10:51.568Z,80072.65
2023-04-15T14:15:58.118Z,88823.09
2023-04-15T14:21:02.890Z,90728.87
2023-04-15T14:26:06.474Z,91232.92
2023-04-15T14:31:12.431Z,96714.45
2023-04-15T14:36:17.207Z,101088.61
2023-04-15T14:41:20.779Z,100649.37
2023-04-15T14:46:24.567Z,104274.48
2023-04-15T14:51:29.377Z,101629.66
2023-04-15T14:56:32.813Z,98921.81
2023-04-15T15:01:38.404Z,95266.32
2023-04-15T15:06:43.258Z,93493.46
2023-04-15T15:11:46.703Z,94888.32
2023-04-15T15:16:50.187Z,98494.95
2023-04-15T15:21:59.918Z,100501.27
2023-04-15T15:27:03.428Z,99752.48
2023-04-15T15:32:09.811Z,102131.85
2023-04-15T15:37:14.611Z,103012.50
2023-04-15T15:42:20.567Z,98449.70
2023-04-15T15:47:26.847Z,95506.52
2023-04-15T15:52:31.741Z,97885.98
2023-04-15T15:57:38.177Z,97939.19
2023-04-15T16:07:49.718Z,100048.05
2023-04-15T16:12:55.504Z,101409.18
2023-04-15T16:18:01.483Z,102279.74
2023-04-15T16:23:13.177Z,101299.69
2023-04-15T16:28:25.661Z,101304.94
2023-04-15T16:33:30.105Z,101266.52
2023-04-15T16:38:34.841Z,102249.85
2023-04-15T16:43:40.594Z,95948.23
2023-04-15T16:48:46.303Z,83590.08
2023-04-15T16:53:51.192Z,67404.10
2023-04-15T16:58:54.596Z,67108.04
2023-04-15T17:03:58.282Z,66063.62
2023-04-15T17:09:03.605Z,69655.41
2023-04-15T17:14:07.809Z,75829.34
2023-04-15T17:19:13.577Z,78939.09
2023-04-15T17:24:25.111Z,75863.88
2023-04-15T17:29:35.042Z,76708.02
2023-04-15T17:34:50.239Z,79008.32
2023-04-15T17:40:16.112Z,81534.29
2023-04-15T17:45:39.502Z,82565.02
2023-04-15T17:51:02.849Z,83402.02
2023-04-15T17:56:29.421Z,82292.95
2023-04-15T18:01:55.156Z,81664.84
2023-04-15T18:07:18.952Z,81610.92
2023-04-15T18:12:43.594Z,80641.45
2023-04-15T18:18:06.825Z,79304.34
2023-04-15T18:23:10.188Z,80726.42
2023-04-15T18:28:17.073Z,80534.15
2023-04-15T18:33:22.994Z,79967.54
2023-04-15T18:38:26.457Z,78008.55
2023-04-15T18:43:33.571Z,79944.96
2023-04-15T18:48:39.441Z,79545.88
2023-04-15T18:53:42.788Z,77924.92
2023-04-15T18:59:08.883Z,79529.95
2023-04-15T19:04:13.224Z,81743.11
2023-04-15T19:09:18.891Z,82428.71
2023-04-15T19:14:26.606Z,84625.73
2023-04-15T19:19:32.247Z,84644.07
2023-04-15T19:24:35.901Z,84724.60
2023-04-15T19:29:40.746Z,85338.44
2023-04-15T19:34:47.156Z,86048.37
2023-04-15T19:39:52.958Z,86137.38
2023-04-15T19:44:57.637Z,86235.25
2023-04-15T19:50:01.338Z,86133.99
2023-04-15T19:55:07.193Z,84899.79
2023-04-15T20:00:12.876Z,85801.18
2023-04-15T20:05:16.315Z,86008.73
2023-04-15T20:10:19.830Z,86393.13
2023-04-15T20:15:24.823Z,86593.08
2023-04-15T20:20:28.256Z,86404.54
2023-04-15T20:25:36.596Z,86177.38
2023-04-15T20:30:44.357Z,86318.46
2023-04-15T20:35:47.783Z,86378.38
2023-04-15T20:40:51.344Z,86534.84
2023-04-15T20:46:02.165Z,85976.05
2023-04-15T20:51:10.340Z,86551.52
2023-04-15T20:56:13.770Z,86249.86
2023-04-15T21:01:18.645Z,86358.18
2023-04-15T21:06:22.028Z,85917.21
2023-04-15T21:11:43.129Z,85396.91
2023-04-15T21:16:52.485Z,85597.52
2023-04-15T21:21:55.973Z,85076.17
2023-04-15T21:26:59.383Z,85132.04
2023-04-15T21:32:04.189Z,85055.59
2023-04-15T21:37:09.958Z,85239.09
2023-04-15T21:42:13.485Z,85592.48
2023-04-15T21:47:18.266Z,85823.71
2023-04-15T21:52:24.214Z,86267.14
2023-04-15T21:57:27.597Z,86492.46
2023-04-15T22:02:32.398Z,86463.05
2023-04-15T22:07:36.408Z,86574.42
2023-04-15T22:12:42.268Z,87004.90
2023-04-15T22:17:47.166Z,87505.67
2023-04-15T22:22:54.211Z,87913.74
2023-04-15T22:27:59.939Z,88274.19
2023-04-15T22:33:04.934Z,88651.71
2023-04-15T22:38:08.386Z,88966.49
2023-04-15T22:43:11.774Z,88344.23
2023-04-15T22:48:18.729Z,88532.68
2023-04-15T22:53:22.050Z,88577.02
2023-04-15T22:58:27.776Z,88526.49
2023-04-15T23:03:32.696Z,70240.69
2023-04-15T23:08:58.314Z,18.00
2023-04-15T23:14:03.820Z,19.17
2023-04-15T23:19:08.864Z,13.70
2023-04-15T23:24:12.906Z,14.56
2023-04-15T23:29:16.217Z,14.58
2023-04-15T23:34:20.922Z,13.94
2023-04-15T23:39:24.296Z,12.90
2023-04-15T23:44:27.600Z,14.80
2023-04-15T23:49:34.556Z,13.88
2023-04-15T23:54:40.896Z,14.64
2023-04-15T23:59:44.204Z,15.79
